Pagina principală
METAR-TAF:

METAR-TAF

Aeroporturi :

Fairhope, Alabama, Statele Unite ale Americii

Latitudine: 30-27-38N, longitudine: 087-52-37W, elevație: 28 m

Observații meteo curente

Raportul a fost făcut în urmă cu 37 de minute, la 21:15 UTC
Vânt 5 kt de la Sud/Sud-vest
Temperatură 32°C
Umiditate 52%
Presiune 1016 hPa
Vizibilitate: 16.1 km
Cer senin

METAR: KCQF 222115Z AUTO 21005KT 10SM CLR 32/21 A3000 RMK AO2

Ora: 16:52 (21:52 UTC)


TAF: lipsă

Observații și prognoze meteo pentru peste 4.000 de aeroporturi (rapoarte METAR și TAF).

Stațiile disponibile sunt reprezentate pe hartă prin puncte galbene și roșii.

Țineți indicatorul mouse-ului pe punctul dorit pentru a vedea denumirea stației.

Apoi, faceți clic pentru a vedea observațiile și prognozele meteorologice.

Pentru a schimba harta: Pentru mărire, faceți clic pe butoanele verzi cu cruce neagră; pentru micșorare, pe butonul verde cu o liniuță; pentru hărți învecinate, pe săgețile verzi.


METAR-TAF: